Time;durP1;ratioP1;P1;durP2;ratioP2;P2;SDS_P1;SDS_P2;PMS_P1;PMS_P2;Temp;Humidity;BMP_temperature;BMP_pressure;BME280_temperature;BME280_humidity;BME280_pressure;Samples;Min_cycle;Max_cycle;Signal;HPM_P1;HPM_P2
2023/07/07 00:01:07;;;;;;;3.23;2.33;;;;;;;;;;4992513;28;92153;-54
2023/07/07 00:03:41;;;;;;;3.63;2.40;;;;;;;;;;4977265;28;92029;-54
2023/07/07 00:06:15;;;;;;;4.23;2.70;;;;;;;;;;4988451;28;93516;-54
2023/07/07 00:08:51;;;;;;;6.53;2.80;;;;;;;;;;4997442;28;93273;-54
2023/07/07 00:11:22;;;;;;;4.60;2.30;;;;;;;;;;4994356;28;92472;-54
2023/07/07 00:13:52;;;;;;;2.23;1.67;;;;;;;;;;4996311;28;92235;-53
2023/07/07 00:16:27;;;;;;;2.83;2.30;;;;;;;;;;4989341;28;93893;-54
2023/07/07 00:18:58;;;;;;;2.10;1.90;;;;;;;;;;4977209;28;93296;-54
2023/07/07 00:21:28;;;;;;;2.13;1.80;;;;;;;;;;4977001;28;92026;-55
2023/07/07 00:23:58;;;;;;;2.23;1.80;;;;;;;;;;4985491;28;92154;-54
2023/07/07 00:26:27;;;;;;;3.27;2.00;;;;;;;;;;4994564;28;92158;-54
2023/07/07 00:28:59;;;;;;;3.07;2.20;;;;;;;;;;4985892;28;92625;-54
2023/07/07 00:31:28;;;;;;;1.90;1.70;;;;;;;;;;4996934;28;92048;-54
2023/07/07 00:33:57;;;;;;;4.57;2.13;;;;;;;;;;4995931;28;91384;-54
2023/07/07 00:36:26;;;;;;;3.33;2.00;;;;;;;;;;4987997;28;92130;-54
2023/07/07 00:39:00;;;;;;;2.40;2.20;;;;;;;;;;4992741;28;92577;-54
2023/07/07 00:41:28;;;;;;;3.60;2.30;;;;;;;;;;4995997;28;93185;-55
2023/07/07 00:44:01;;;;;;;2.53;1.53;;;;;;;;;;4989653;28;92112;-54
2023/07/07 00:46:29;;;;;;;1.73;1.57;;;;;;;;;;4990373;28;94183;-54
2023/07/07 00:48:59;;;;;;;3.40;2.13;;;;;;;;;;4994717;28;93794;-54
2023/07/07 00:51:29;;;;;;;2.30;1.80;;;;;;;;;;4985678;28;92057;-54
2023/07/07 00:53:59;;;;;;;3.63;2.00;;;;;;;;;;4996427;28;92124;-55
2023/07/07 00:56:27;;;;;;;2.40;1.77;;;;;;;;;;4996270;28;93627;-54
2023/07/07 00:58:59;;;;;;;2.13;1.70;;;;;;;;;;4996561;28;92872;-54
2023/07/07 01:01:27;;;;;;;2.07;1.40;;;;;;;;;;4991985;28;92592;-54
2023/07/07 01:03:58;;;;;;;4.50;1.80;;;;;;;;;;4976372;28;92136;-54
2023/07/07 01:06:30;;;;;;;3.57;2.03;;;;;;;;;;4975433;28;95493;-54
2023/07/07 01:09:01;;;;;;;2.20;1.57;;;;;;;;;;4989629;28;93806;-54
2023/07/07 01:11:30;;;;;;;5.90;1.83;;;;;;;;;;4992136;28;92093;-55
2023/07/07 01:13:58;;;;;;;3.80;1.93;;;;;;;;;;4986058;28;92074;-54
2023/07/07 01:16:32;;;;;;;3.07;2.40;;;;;;;;;;4978334;28;93121;-54
2023/07/07 01:19:02;;;;;;;2.50;2.03;;;;;;;;;;4978123;28;92646;-54
2023/07/07 01:21:34;;;;;;;3.10;2.37;;;;;;;;;;4978408;28;92491;-54
2023/07/07 01:24:19;;;;;;;2.50;2.17;;;;;;;;;;4991359;28;92819;-54
2023/07/07 01:26:51;;;;;;;3.60;2.40;;;;;;;;;;4995159;28;94188;-54
2023/07/07 01:29:28;;;;;;;2.37;2.17;;;;;;;;;;4997465;28;93851;-54
2023/07/07 01:31:59;;;;;;;3.23;2.47;;;;;;;;;;4981520;28;92999;-54
2023/07/07 01:34:27;;;;;;;4.00;2.30;;;;;;;;;;4977962;28;92008;-54
2023/07/07 01:36:56;;;;;;;5.40;2.30;;;;;;;;;;4993631;28;94335;-54
2023/07/07 01:39:28;;;;;;;2.70;2.50;;;;;;;;;;4997382;28;93765;-54
2023/07/07 01:41:59;;;;;;;3.63;1.97;;;;;;;;;;4985071;28;92149;-54
2023/07/07 01:44:30;;;;;;;3.23;2.53;;;;;;;;;;4987877;28;92000;-54
2023/07/07 01:47:03;;;;;;;3.43;2.57;;;;;;;;;;4988930;28;93100;-54
2023/07/07 01:49:32;;;;;;;3.97;2.40;;;;;;;;;;4982298;28;91496;-54
2023/07/07 01:52:04;;;;;;;2.67;1.83;;;;;;;;;;4981136;28;91900;-54
2023/07/07 01:54:34;;;;;;;3.07;2.23;;;;;;;;;;4978882;28;92011;-54
2023/07/07 01:57:03;;;;;;;2.00;1.80;;;;;;;;;;4993031;28;94010;-54
2023/07/07 01:59:32;;;;;;;3.87;2.47;;;;;;;;;;4997488;28;93621;-54
2023/07/07 02:02:05;;;;;;;4.20;3.03;;;;;;;;;;4996833;28;91948;-54
2023/07/07 02:04:35;;;;;;;3.30;2.60;;;;;;;;;;4980741;28;92027;-54
2023/07/07 02:07:05;;;;;;;3.60;2.43;;;;;;;;;;4988029;28;93047;-54
2023/07/07 02:09:34;;;;;;;3.13;2.50;;;;;;;;;;4990542;28;93492;-54
2023/07/07 02:12:03;;;;;;;2.57;2.20;;;;;;;;;;4979704;28;91897;-54
2023/07/07 02:14:31;;;;;;;2.67;2.17;;;;;;;;;;4990774;28;91422;-54
2023/07/07 02:17:01;;;;;;;2.17;1.97;;;;;;;;;;4997842;28;93049;-54
2023/07/07 02:19:31;;;;;;;3.53;2.23;;;;;;;;;;4995845;28;93287;-54
2023/07/07 02:22:01;;;;;;;3.23;2.23;;;;;;;;;;4983694;28;92711;-54
2023/07/07 02:24:30;;;;;;;5.40;2.83;;;;;;;;;;4997569;28;92047;-54
2023/07/07 02:26:58;;;;;;;3.60;1.93;;;;;;;;;;4998308;28;94176;-54
2023/07/07 02:29:31;;;;;;;4.30;2.40;;;;;;;;;;4998011;28;92529;-54
2023/07/07 02:32:00;;;;;;;3.23;2.10;;;;;;;;;;4996685;28;92006;-54
2023/07/07 02:34:28;;;;;;;2.80;1.90;;;;;;;;;;4998022;28;92048;-54
2023/07/07 02:36:59;;;;;;;3.73;1.90;;;;;;;;;;4997835;28;92080;-54
2023/07/07 02:39:28;;;;;;;3.57;2.03;;;;;;;;;;4997372;28;93797;-54
2023/07/07 02:41:58;;;;;;;2.77;2.13;;;;;;;;;;4978048;28;91905;-54
2023/07/07 02:44:33;;;;;;;4.63;2.03;;;;;;;;;;4978156;28;92019;-54
2023/07/07 02:47:01;;;;;;;2.87;2.00;;;;;;;;;;4977627;28;92889;-54
2023/07/07 02:49:30;;;;;;;3.33;2.13;;;;;;;;;;4977711;28;93645;-54
2023/07/07 02:52:00;;;;;;;3.47;2.60;;;;;;;;;;4979256;28;91955;-55
2023/07/07 02:54:28;;;;;;;2.53;2.07;;;;;;;;;;4978107;28;91904;-54
2023/07/07 02:56:57;;;;;;;3.80;2.40;;;;;;;;;;4978010;28;93259;-54
2023/07/07 02:59:27;;;;;;;2.40;1.83;;;;;;;;;;4977924;28;93917;-54
2023/07/07 03:01:59;;;;;;;2.60;2.00;;;;;;;;;;4992919;28;92622;-54
2023/07/07 03:04:29;;;;;;;1.63;1.53;;;;;;;;;;4997969;28;91315;-54
2023/07/07 03:06:57;;;;;;;3.13;2.23;;;;;;;;;;4997897;28;92722;-54
2023/07/07 03:09:27;;;;;;;2.63;2.00;;;;;;;;;;4999380;28;92965;-54
2023/07/07 03:11:57;;;;;;;2.97;1.97;;;;;;;;;;4999568;28;93036;-54
2023/07/07 03:14:26;;;;;;;2.27;1.73;;;;;;;;;;5000479;28;92107;-54
2023/07/07 03:16:57;;;;;;;3.43;1.80;;;;;;;;;;5000691;28;93099;-54
2023/07/07 03:19:26;;;;;;;4.57;1.77;;;;;;;;;;5000768;28;93815;-54
2023/07/07 03:21:57;;;;;;;1.97;1.77;;;;;;;;;;5000679;28;91913;-54
2023/07/07 03:24:27;;;;;;;2.30;1.50;;;;;;;;;;5000834;28;91991;-54
2023/07/07 03:26:56;;;;;;;2.30;1.53;;;;;;;;;;4999842;28;93090;-54
2023/07/07 03:29:28;;;;;;;2.50;1.57;;;;;;;;;;5001015;28;93697;-54
2023/07/07 03:31:58;;;;;;;2.63;1.20;;;;;;;;;;5000198;28;92099;-54
2023/07/07 03:34:29;;;;;;;2.07;1.87;;;;;;;;;;5000796;28;92010;-54
2023/07/07 03:36:58;;;;;;;2.40;2.10;;;;;;;;;;5000127;28;93948;-54
2023/07/07 03:39:31;;;;;;;2.83;1.70;;;;;;;;;;5000186;28;94638;-54
2023/07/07 03:42:01;;;;;;;2.73;1.80;;;;;;;;;;4999306;28;91887;-54
2023/07/07 03:44:31;;;;;;;2.53;1.67;;;;;;;;;;5000185;28;92118;-54
2023/07/07 03:46:59;;;;;;;3.30;1.70;;;;;;;;;;5000432;28;93142;-54
2023/07/07 03:49:28;;;;;;;5.03;1.90;;;;;;;;;;5000267;28;92810;-54
2023/07/07 03:51:57;;;;;;;2.30;2.00;;;;;;;;;;5000354;28;91952;-54
2023/07/07 03:54:25;;;;;;;5.00;2.07;;;;;;;;;;5000733;28;91233;-54
2023/07/07 03:56:57;;;;;;;3.80;2.00;;;;;;;;;;5000502;28;94041;-54
2023/07/07 03:59:29;;;;;;;3.43;1.90;;;;;;;;;;5000345;28;92683;-54
2023/07/07 04:01:59;;;;;;;2.33;1.93;;;;;;;;;;5000420;28;93170;-55
2023/07/07 04:04:28;;;;;;;1.70;1.60;;;;;;;;;;4998305;28;92116;-54
2023/07/07 04:06:57;;;;;;;4.33;2.73;;;;;;;;;;5000288;28;93022;-54
2023/07/07 04:09:27;;;;;;;4.30;2.40;;;;;;;;;;5000097;28;92750;-54
2023/07/07 04:11:57;;;;;;;3.20;2.20;;;;;;;;;;5000628;28;91986;-54
2023/07/07 04:14:27;;;;;;;3.50;2.50;;;;;;;;;;4986072;28;93110;-53
2023/07/07 04:16:57;;;;;;;3.77;2.80;;;;;;;;;;4987212;28;93956;-54
2023/07/07 04:19:25;;;;;;;3.47;2.63;;;;;;;;;;4999996;28;92574;-54
2023/07/07 04:21:54;;;;;;;4.60;2.90;;;;;;;;;;4999410;28;91955;-54
2023/07/07 04:24:23;;;;;;;4.57;3.30;;;;;;;;;;4990102;28;92682;-54
2023/07/07 04:26:52;;;;;;;4.90;3.23;;;;;;;;;;4979377;28;94013;-54
2023/07/07 04:29:23;;;;;;;4.80;2.90;;;;;;;;;;4979537;28;93861;-54
2023/07/07 04:31:51;;;;;;;5.07;3.63;;;;;;;;;;4980215;28;91984;-54
2023/07/07 04:34:22;;;;;;;5.20;3.80;;;;;;;;;;4984988;28;92362;-54
2023/07/07 04:36:50;;;;;;;5.90;3.53;;;;;;;;;;4999082;28;93179;-54
2023/07/07 04:39:20;;;;;;;7.43;5.80;;;;;;;;;;4999416;28;92913;-54
2023/07/07 04:41:51;;;;;;;7.77;5.17;;;;;;;;;;4999384;28;91971;-55
2023/07/07 04:44:19;;;;;;;8.93;5.53;;;;;;;;;;4999104;28;91389;-54
2023/07/07 04:46:49;;;;;;;10.10;5.90;;;;;;;;;;4979472;28;92335;-54
2023/07/07 04:49:18;;;;;;;8.90;6.00;;;;;;;;;;4979458;28;92845;-54
2023/07/07 04:51:46;;;;;;;8.87;5.37;;;;;;;;;;4979183;28;93077;-54
2023/07/07 04:54:15;;;;;;;10.73;7.07;;;;;;;;;;4979689;28;92115;-54
2023/07/07 04:56:44;;;;;;;10.20;6.57;;;;;;;;;;4979945;28;93087;-54
2023/07/07 04:59:13;;;;;;;9.80;6.80;;;;;;;;;;4979285;28;92823;-54
2023/07/07 05:01:41;;;;;;;11.23;5.93;;;;;;;;;;4979919;28;91916;-54
2023/07/07 05:04:11;;;;;;;10.83;7.00;;;;;;;;;;4979479;28;92058;-54
2023/07/07 05:06:40;;;;;;;10.87;7.00;;;;;;;;;;4979569;28;94980;-54
2023/07/07 05:09:09;;;;;;;9.07;6.67;;;;;;;;;;4980385;28;92818;-54
2023/07/07 05:11:38;;;;;;;10.53;7.10;;;;;;;;;;4987175;28;92039;-54
2023/07/07 05:14:06;;;;;;;12.17;7.87;;;;;;;;;;4998949;28;92103;-54
2023/07/07 05:16:36;;;;;;;12.57;7.73;;;;;;;;;;4998525;28;93769;-54
2023/07/07 05:19:05;;;;;;;10.90;7.23;;;;;;;;;;4998704;28;94854;-54
2023/07/07 05:21:35;;;;;;;11.30;8.03;;;;;;;;;;4997335;28;92052;-55
2023/07/07 05:24:04;;;;;;;11.50;8.33;;;;;;;;;;4996709;28;92687;-54
2023/07/07 05:26:32;;;;;;;14.40;8.93;;;;;;;;;;4975653;28;93613;-54
2023/07/07 05:29:01;;;;;;;13.33;8.33;;;;;;;;;;4975986;28;94029;-55
2023/07/07 05:31:30;;;;;;;15.57;8.47;;;;;;;;;;4975770;28;92072;-54
2023/07/07 05:33:58;;;;;;;11.80;7.67;;;;;;;;;;4977266;28;91396;-54
2023/07/07 05:36:27;;;;;;;10.60;7.57;;;;;;;;;;4975618;28;94202;-54
2023/07/07 05:38:56;;;;;;;13.23;8.07;;;;;;;;;;4976008;28;92871;-54
2023/07/07 05:41:25;;;;;;;9.50;6.67;;;;;;;;;;4987071;28;93033;-54
2023/07/07 05:43:55;;;;;;;10.40;7.03;;;;;;;;;;4979778;28;92118;-54
2023/07/07 05:46:24;;;;;;;12.77;7.33;;;;;;;;;;4985379;28;95414;-54
2023/07/07 05:48:55;;;;;;;12.27;7.30;;;;;;;;;;4995315;28;92625;-55
2023/07/07 05:51:27;;;;;;;11.60;7.00;;;;;;;;;;4982163;28;92117;-54
2023/07/07 05:54:02;;;;;;;11.00;6.40;;;;;;;;;;4976758;28;92255;-54
2023/07/07 05:56:31;;;;;;;10.77;6.90;;;;;;;;;;4975685;28;96482;-55
2023/07/07 05:59:02;;;;;;;9.73;6.60;;;;;;;;;;4977111;28;91754;-54
2023/07/07 06:01:30;;;;;;;11.10;6.53;;;;;;;;;;4980121;28;92140;-56
2023/07/07 06:04:01;;;;;;;9.27;6.47;;;;;;;;;;4975829;28;92101;-55
2023/07/07 06:06:31;;;;;;;9.90;5.20;;;;;;;;;;4974902;28;95116;-52
2023/07/07 06:09:06;;;;;;;6.00;4.50;;;;;;;;;;4975388;28;94254;-53
2023/07/07 06:11:36;;;;;;;7.00;4.60;;;;;;;;;;4977317;28;92268;-55
2023/07/07 06:14:04;;;;;;;5.93;4.10;;;;;;;;;;4984112;28;92838;-53
2023/07/07 06:16:33;;;;;;;6.97;3.60;;;;;;;;;;4995006;28;93125;-53
2023/07/07 06:19:03;;;;;;;5.23;3.53;;;;;;;;;;4981200;28;93558;-54
2023/07/07 06:21:32;;;;;;;4.83;3.00;;;;;;;;;;4975809;28;92548;-54
2023/07/07 06:24:02;;;;;;;4.97;2.90;;;;;;;;;;4975314;28;91339;-54
2023/07/07 06:26:30;;;;;;;7.83;2.77;;;;;;;;;;4993695;28;94175;-54
2023/07/07 06:28:59;;;;;;;3.70;2.40;;;;;;;;;;4995333;28;92758;-55
2023/07/07 06:31:27;;;;;;;3.37;2.80;;;;;;;;;;4995087;28;93363;-54
2023/07/07 06:33:56;;;;;;;25.37;9.03;;;;;;;;;;4993511;28;92142;-53
2023/07/07 06:36:24;;;;;;;16.17;5.97;;;;;;;;;;4992850;28;93344;-57
2023/07/07 06:38:53;;;;;;;20.00;5.27;;;;;;;;;;4994532;28;93053;-57
2023/07/07 06:41:22;;;;;;;8.00;3.43;;;;;;;;;;4993586;28;92153;-58
2023/07/07 06:43:53;;;;;;;7.40;3.10;;;;;;;;;;4977247;28;92499;-55
2023/07/07 06:46:21;;;;;;;3.00;2.50;;;;;;;;;;4978548;28;94323;-62
2023/07/07 06:48:50;;;;;;;19.03;8.20;;;;;;;;;;4978558;28;93987;-58
2023/07/07 06:51:18;;;;;;;18.93;9.13;;;;;;;;;;4979053;28;91990;-57
2023/07/07 06:53:47;;;;;;;19.70;8.13;;;;;;;;;;4978945;28;92260;-57
2023/07/07 06:56:15;;;;;;;9.97;6.17;;;;;;;;;;4986777;28;94174;-57
2023/07/07 06:58:45;;;;;;;9.03;4.37;;;;;;;;;;4997983;28;93792;-57
2023/07/07 07:01:14;;;;;;;8.93;4.30;;;;;;;;;;4979539;28;92097;-58
2023/07/07 07:03:43;;;;;;;5.47;3.60;;;;;;;;;;4978413;28;92393;-56
2023/07/07 07:06:12;;;;;;;8.03;3.53;;;;;;;;;;4979283;28;94381;-57
2023/07/07 07:08:40;;;;;;;8.97;4.00;;;;;;;;;;4977960;28;92993;-56
2023/07/07 07:11:09;;;;;;;8.53;3.47;;;;;;;;;;4978630;28;92582;-56
2023/07/07 07:13:37;;;;;;;6.30;3.37;;;;;;;;;;4978301;28;91439;-57
2023/07/07 07:16:07;;;;;;;10.03;3.63;;;;;;;;;;4977823;28;94603;-57
2023/07/07 07:18:36;;;;;;;5.03;2.70;;;;;;;;;;4978094;28;92773;-56
2023/07/07 07:21:04;;;;;;;3.80;2.50;;;;;;;;;;4977955;28;93139;-56
2023/07/07 07:23:32;;;;;;;6.87;2.63;;;;;;;;;;4977865;28;92160;-56
2023/07/07 07:26:04;;;;;;;5.60;2.43;;;;;;;;;;4977671;28;94589;-57
2023/07/07 07:28:32;;;;;;;4.07;2.37;;;;;;;;;;4977637;28;91944;-56
2023/07/07 07:31:01;;;;;;;7.47;2.40;;;;;;;;;;4978168;28;92059;-57
2023/07/07 07:33:31;;;;;;;5.57;2.50;;;;;;;;;;4977834;28;92123;-57
2023/07/07 07:36:00;;;;;;;5.87;2.57;;;;;;;;;;4977513;28;93272;-56
2023/07/07 07:38:29;;;;;;;4.13;1.90;;;;;;;;;;4978040;28;93845;-57
2023/07/07 07:40:58;;;;;;;3.60;2.00;;;;;;;;;;4978185;28;91980;-57
2023/07/07 07:43:27;;;;;;;5.13;2.27;;;;;;;;;;4977552;28;92093;-56
2023/07/07 07:45:56;;;;;;;4.67;2.53;;;;;;;;;;4977231;28;94265;-56
2023/07/07 07:48:24;;;;;;;2.20;1.67;;;;;;;;;;4977699;28;97040;-58
2023/07/07 07:50:54;;;;;;;4.77;1.80;;;;;;;;;;4977783;28;92147;-57
2023/07/07 07:53:23;;;;;;;2.53;1.30;;;;;;;;;;4977764;28;92277;-57
2023/07/07 07:55:53;;;;;;;2.47;1.73;;;;;;;;;;4976990;28;94348;-56
2023/07/07 07:58:22;;;;;;;2.07;1.60;;;;;;;;;;4977245;28;92880;-57
2023/07/07 08:00:50;;;;;;;2.27;1.20;;;;;;;;;;4977486;28;92026;-57
2023/07/07 08:03:18;;;;;;;3.13;2.07;;;;;;;;;;4977864;28;91470;-57
2023/07/07 08:05:47;;;;;;;2.80;1.33;;;;;;;;;;4977322;28;93380;-57
2023/07/07 08:08:17;;;;;;;2.33;1.50;;;;;;;;;;4977033;28;92986;-56
2023/07/07 08:10:45;;;;;;;3.03;1.63;;;;;;;;;;4977320;28;93593;-57
2023/07/07 08:13:29;;;;;;;3.90;1.33;;;;;;;;;;4977096;28;92024;-57
2023/07/07 08:16:08;;;;;;;3.07;1.53;;;;;;;;;;4977218;28;94584;-57
2023/07/07 08:18:37;;;;;;;2.03;1.20;;;;;;;;;;4976830;28;92758;-57
2023/07/07 08:21:05;;;;;;;2.47;1.43;;;;;;;;;;4977318;28;92184;-57
2023/07/07 08:23:35;;;;;;;2.23;1.30;;;;;;;;;;4976950;28;92169;-57
2023/07/07 08:26:03;;;;;;;2.23;1.50;;;;;;;;;;4976368;28;97292;-57
2023/07/07 08:28:35;;;;;;;1.37;1.17;;;;;;;;;;4976813;28;92361;-57
2023/07/07 08:31:03;;;;;;;1.40;1.27;;;;;;;;;;4977396;28;92014;-57
2023/07/07 08:33:32;;;;;;;1.60;1.43;;;;;;;;;;4977106;28;92077;-57
2023/07/07 08:36:01;;;;;;;1.17;0.97;;;;;;;;;;4975982;28;95443;-57
2023/07/07 08:38:29;;;;;;;4.23;1.23;;;;;;;;;;4976658;28;93815;-56
2023/07/07 08:41:01;;;;;;;1.33;1.23;;;;;;;;;;4977343;28;92316;-57
2023/07/07 08:43:30;;;;;;;2.47;1.10;;;;;;;;;;4976652;28;92198;-56
2023/07/07 08:46:00;;;;;;;2.47;1.47;;;;;;;;;;4976600;28;93703;-57
2023/07/07 08:48:32;;;;;;;2.20;1.20;;;;;;;;;;4979384;28;92766;-57
2023/07/07 08:51:02;;;;;;;2.73;1.03;;;;;;;;;;5000144;28;91946;-57
2023/07/07 08:53:39;;;;;;;1.00;0.90;;;;;;;;;;4999964;28;91402;-56
2023/07/07 08:56:13;;;;;;;2.13;1.13;;;;;;;;;;4999257;28;93106;-56
2023/07/07 08:58:45;;;;;;;2.30;1.20;;;;;;;;;;4999349;28;92602;-56
2023/07/07 09:01:18;;;;;;;0.77;0.73;;;;;;;;;;4991728;28;93066;-56
2023/07/07 09:03:50;;;;;;;1.33;1.00;;;;;;;;;;4994966;28;92079;-56
2023/07/07 09:06:22;;;;;;;1.53;0.97;;;;;;;;;;4987204;28;94027;-56
2023/07/07 09:08:52;;;;;;;1.07;0.70;;;;;;;;;;4990814;28;93927;-56
2023/07/07 09:11:25;;;;;;;1.43;0.80;;;;;;;;;;4992717;28;92010;-56
2023/07/07 09:13:55;;;;;;;1.83;0.83;;;;;;;;;;4984103;28;91970;-56
2023/07/07 09:16:24;;;;;;;0.93;0.83;;;;;;;;;;4978538;28;93031;-56
2023/07/07 09:18:54;;;;;;;1.67;1.00;;;;;;;;;;4979099;28;93917;-56
2023/07/07 09:21:29;;;;;;;1.00;0.53;;;;;;;;;;4979645;28;91927;-56
2023/07/07 09:23:58;;;;;;;0.83;0.83;;;;;;;;;;4979626;28;91951;-57
2023/07/07 09:26:29;;;;;;;0.63;0.60;;;;;;;;;;4978522;28;94955;-56
2023/07/07 09:28:57;;;;;;;2.10;1.03;;;;;;;;;;4979038;28;93884;-56
2023/07/07 09:31:27;;;;;;;1.67;0.90;;;;;;;;;;4979628;28;92009;-56
2023/07/07 09:33:56;;;;;;;3.57;1.03;;;;;;;;;;4978773;28;91999;-56
2023/07/07 09:36:25;;;;;;;2.60;1.13;;;;;;;;;;4978904;28;93202;-56
2023/07/07 09:38:56;;;;;;;3.03;0.73;;;;;;;;;;4979193;28;92954;-56
2023/07/07 09:41:27;;;;;;;1.43;1.10;;;;;;;;;;4979103;28;91942;-56
2023/07/07 09:44:02;;;;;;;2.00;1.00;;;;;;;;;;4979294;28;91287;-56
2023/07/07 09:46:31;;;;;;;1.57;1.00;;;;;;;;;;4980761;28;93977;-56
2023/07/07 09:49:03;;;;;;;2.20;0.77;;;;;;;;;;4998596;28;93098;-56
2023/07/07 09:51:36;;;;;;;2.23;1.00;;;;;;;;;;4998910;28;92719;-56
2023/07/07 09:54:04;;;;;;;1.67;0.70;;;;;;;;;;4998728;28;91986;-56
2023/07/07 09:56:33;;;;;;;1.70;0.93;;;;;;;;;;4998186;28;93271;-56
2023/07/07 09:59:06;;;;;;;1.30;0.90;;;;;;;;;;4998532;28;93695;-56
2023/07/07 10:01:39;;;;;;;1.30;0.90;;;;;;;;;;4998778;28;92103;-56
2023/07/07 10:04:43;;;;;;;0.73;0.70;;;;;;;;;;4997858;28;91765;-56
2023/07/07 10:07:12;;;;;;;0.60;0.53;;;;;;;;;;4998471;28;94265;-56
2023/07/07 10:09:40;;;;;;;1.20;0.70;;;;;;;;;;4998960;28;92951;-56
2023/07/07 10:12:09;;;;;;;1.60;0.77;;;;;;;;;;4998888;28;91772;-56
2023/07/07 10:14:54;;;;;;;1.20;0.80;;;;;;;;;;4997900;28;91979;-56
2023/07/07 10:17:25;;;;;;;2.27;1.20;;;;;;;;;;4997298;28;94098;-56
2023/07/07 10:19:54;;;;;;;1.60;0.70;;;;;;;;;;4998097;28;94737;-57
2023/07/07 10:22:23;;;;;;;1.50;0.83;;;;;;;;;;4997323;28;92063;-56
2023/07/07 10:24:51;;;;;;;1.70;0.90;;;;;;;;;;4998255;28;92012;-56
2023/07/07 10:27:21;;;;;;;0.97;0.83;;;;;;;;;;4998149;28;93017;-57
2023/07/07 10:29:50;;;;;;;0.87;0.67;;;;;;;;;;4997660;28;92594;-57
2023/07/07 10:32:21;;;;;;;2.47;0.77;;;;;;;;;;4998451;28;91976;-56
2023/07/07 10:34:50;;;;;;;1.90;0.87;;;;;;;;;;4998548;28;91244;-56
2023/07/07 10:37:20;;;;;;;4.37;0.80;;;;;;;;;;4998169;28;93280;-56
2023/07/07 10:39:50;;;;;;;1.47;0.73;;;;;;;;;;4997893;28;93974;-56
2023/07/07 10:42:20;;;;;;;3.97;0.90;;;;;;;;;;4997382;28;92934;-56
2023/07/07 10:44:48;;;;;;;0.77;0.70;;;;;;;;;;4998046;28;91900;-56
2023/07/07 10:47:17;;;;;;;0.77;0.67;;;;;;;;;;4997826;28;93440;-56
2023/07/07 10:49:52;;;;;;;1.83;0.83;;;;;;;;;;4997665;28;93040;-56
2023/07/07 10:52:24;;;;;;;0.70;0.60;;;;;;;;;;4998253;28;91853;-56
2023/07/07 10:55:16;;;;;;;0.80;0.57;;;;;;;;;;4998056;28;92176;-56
2023/07/07 10:57:46;;;;;;;2.00;0.60;;;;;;;;;;4996720;28;94120;-56
2023/07/07 11:00:21;;;;;;;1.07;0.50;;;;;;;;;;4997274;28;93979;-56
2023/07/07 11:03:11;;;;;;;1.10;0.70;;;;;;;;;;4998484;28;92068;-56
2023/07/07 11:05:50;;;;;;;1.93;0.80;;;;;;;;;;4997996;28;92041;-56
2023/07/07 11:08:34;;;;;;;0.83;0.63;;;;;;;;;;4997177;28;94059;-56
2023/07/07 11:11:09;;;;;;;1.10;0.93;;;;;;;;;;4997452;28;93863;-56
2023/07/07 11:13:43;;;;;;;0.90;0.50;;;;;;;;;;4997723;28;91985;-57
2023/07/07 11:16:15;;;;;;;0.93;0.73;;;;;;;;;;4997535;28;93705;-56
2023/07/07 11:18:50;;;;;;;0.87;0.60;;;;;;;;;;4997544;28;94059;-56
2023/07/07 11:21:23;;;;;;;0.60;0.60;;;;;;;;;;4997339;28;93876;-55
2023/07/07 11:23:55;;;;;;;1.37;0.80;;;;;;;;;;4997826;28;91862;-55
2023/07/07 11:26:27;;;;;;;0.83;0.60;;;;;;;;;;4998018;28;91202;-56
2023/07/07 11:28:57;;;;;;;1.40;0.77;;;;;;;;;;4997152;28;92943;-56
2023/07/07 11:31:30;;;;;;;1.20;1.00;;;;;;;;;;5000464;28;92958;-57
2023/07/07 11:33:59;;;;;;;0.83;0.70;;;;;;;;;;5000700;28;93035;-56
2023/07/07 11:36:35;;;;;;;1.20;0.97;;;;;;;;;;5000877;28;91947;-56
2023/07/07 11:39:12;;;;;;;1.20;1.10;;;;;;;;;;4999043;28;94083;-56
2023/07/07 11:41:44;;;;;;;3.13;0.97;;;;;;;;;;5000288;28;93762;-56
2023/07/07 11:44:19;;;;;;;1.00;0.93;;;;;;;;;;5000722;28;91898;-56
2023/07/07 11:46:51;;;;;;;0.73;0.73;;;;;;;;;;5000650;28;91954;-56
2023/07/07 11:49:23;;;;;;;1.40;1.03;;;;;;;;;;5000440;28;94130;-56
2023/07/07 11:51:55;;;;;;;1.63;1.10;;;;;;;;;;5001224;28;92793;-56
2023/07/07 11:54:33;;;;;;;1.63;0.50;;;;;;;;;;5000854;28;91791;-57
2023/07/07 11:57:06;;;;;;;0.97;0.63;;;;;;;;;;5000269;28;92047;-56
2023/07/07 11:59:43;;;;;;;1.13;0.80;;;;;;;;;;4999636;28;95417;-56
2023/07/07 12:02:12;;;;;;;1.77;0.97;;;;;;;;;;5000297;28;93740;-56
2023/07/07 12:04:43;;;;;;;1.60;0.80;;;;;;;;;;5000744;28;91790;-56
2023/07/07 12:07:13;;;;;;;0.60;0.60;;;;;;;;;;5000482;28;92112;-56
2023/07/07 12:09:44;;;;;;;1.20;1.00;;;;;;;;;;5000051;28;93593;-56
2023/07/07 12:12:13;;;;;;;1.67;1.13;;;;;;;;;;5000338;28;93684;-56
2023/07/07 12:14:43;;;;;;;0.87;0.67;;;;;;;;;;5000223;28;91792;-56
2023/07/07 12:17:13;;;;;;;0.70;0.70;;;;;;;;;;5000517;28;91418;-56
2023/07/07 12:19:43;;;;;;;0.80;0.63;;;;;;;;;;4999773;28;93160;-56
2023/07/07 12:22:14;;;;;;;1.63;1.03;;;;;;;;;;4999958;28;93833;-56
2023/07/07 12:24:43;;;;;;;1.33;1.00;;;;;;;;;;5000073;28;92676;-56
2023/07/07 12:27:15;;;;;;;1.53;0.97;;;;;;;;;;4999789;28;92073;-56
2023/07/07 12:29:44;;;;;;;0.77;0.70;;;;;;;;;;4999843;28;94071;-56
2023/07/07 12:32:12;;;;;;;1.70;0.97;;;;;;;;;;4999854;28;92764;-56
2023/07/07 12:34:42;;;;;;;1.87;1.23;;;;;;;;;;5000351;28;91971;-56
2023/07/07 12:37:14;;;;;;;0.87;0.67;;;;;;;;;;5000033;28;92181;-56
2023/07/07 12:39:56;;;;;;;0.87;0.70;;;;;;;;;;4999999;28;94128;-56
2023/07/07 12:42:25;;;;;;;1.07;0.90;;;;;;;;;;4998448;28;93789;-56
2023/07/07 12:44:53;;;;;;;1.90;1.23;;;;;;;;;;4987011;28;92771;-56
2023/07/07 12:47:26;;;;;;;1.77;0.90;;;;;;;;;;4976585;28;92085;-56
2023/07/07 12:49:55;;;;;;;1.20;1.10;;;;;;;;;;4976196;28;95129;-56
2023/07/07 12:52:25;;;;;;;1.27;0.90;;;;;;;;;;4976547;28;93668;-56
2023/07/07 12:54:54;;;;;;;1.20;0.87;;;;;;;;;;4976870;28;92238;-56
2023/07/07 12:57:24;;;;;;;1.27;0.73;;;;;;;;;;4976241;28;92128;-56
2023/07/07 12:59:52;;;;;;;1.40;1.10;;;;;;;;;;4976202;28;93257;-56
2023/07/07 13:02:21;;;;;;;1.53;1.10;;;;;;;;;;4976480;28;94020;-56
2023/07/07 13:04:50;;;;;;;1.93;1.20;;;;;;;;;;4977053;28;91964;-56
2023/07/07 13:07:20;;;;;;;3.23;1.30;;;;;;;;;;4976929;28;91326;-56
2023/07/07 13:09:50;;;;;;;1.93;1.30;;;;;;;;;;4976185;28;92940;-57
2023/07/07 13:12:37;;;;;;;1.50;1.20;;;;;;;;;;4975987;28;92991;-56
2023/07/07 13:15:07;;;;;;;2.10;1.20;;;;;;;;;;4975122;28;93635;-56
2023/07/07 13:17:35;;;;;;;1.33;1.23;;;;;;;;;;4975393;28;92034;-57
2023/07/07 13:20:05;;;;;;;1.97;1.50;;;;;;;;;;4974612;28;93804;-57
2023/07/07 13:22:34;;;;;;;1.43;1.20;;;;;;;;;;4974948;28;92478;-57
2023/07/07 13:25:07;;;;;;;2.00;1.47;;;;;;;;;;4975024;28;92130;-57
2023/07/07 13:27:35;;;;;;;2.60;1.77;;;;;;;;;;4975283;28;92014;-56
2023/07/07 13:30:20;;;;;;;1.97;1.60;;;;;;;;;;4974698;28;93139;-56
2023/07/07 13:32:48;;;;;;;2.63;1.17;;;;;;;;;;4974925;28;94000;-56
2023/07/07 13:35:17;;;;;;;1.33;1.10;;;;;;;;;;4974895;28;92137;-56
2023/07/07 13:37:45;;;;;;;3.40;1.23;;;;;;;;;;4974862;28;92232;-57
2023/07/07 13:40:17;;;;;;;2.37;1.27;;;;;;;;;;4973929;28;94155;-56
2023/07/07 13:42:48;;;;;;;1.50;1.07;;;;;;;;;;4974221;28;93738;-57
2023/07/07 13:45:17;;;;;;;3.33;1.30;;;;;;;;;;4975019;28;92141;-56
2023/07/07 13:47:47;;;;;;;3.30;1.30;;;;;;;;;;4974765;28;92179;-57
2023/07/07 13:50:16;;;;;;;2.20;1.43;;;;;;;;;;4974533;28;94221;-56
2023/07/07 13:52:45;;;;;;;1.50;0.90;;;;;;;;;;4974044;28;93243;-56
2023/07/07 13:55:15;;;;;;;1.83;1.50;;;;;;;;;;4974662;28;91971;-57
2023/07/07 13:57:44;;;;;;;1.77;1.30;;;;;;;;;;4974400;28;91391;-56
2023/07/07 14:00:19;;;;;;;2.90;1.13;;;;;;;;;;4974102;28;93043;-56
2023/07/07 14:02:48;;;;;;;1.83;1.33;;;;;;;;;;4974057;28;93019;-56
2023/07/07 14:05:17;;;;;;;1.87;1.20;;;;;;;;;;4974205;28;93195;-56
2023/07/07 14:07:45;;;;;;;1.70;1.10;;;;;;;;;;4973997;28;92289;-57
2023/07/07 14:10:20;;;;;;;4.47;1.50;;;;;;;;;;4974333;28;94051;-56
2023/07/07 14:12:48;;;;;;;3.90;1.40;;;;;;;;;;4973838;28;93994;-56
2023/07/07 14:15:17;;;;;;;1.20;1.00;;;;;;;;;;4923121;28;1474958;-56
2023/07/07 14:17:45;;;;;;;1.50;1.13;;;;;;;;;;4975684;28;92079;-56
2023/07/07 14:20:18;;;;;;;2.10;1.23;;;;;;;;;;4974048;28;93809;-57
2023/07/07 14:22:46;;;;;;;1.10;1.00;;;;;;;;;;4988165;28;92783;-56
2023/07/07 14:25:15;;;;;;;3.67;1.70;;;;;;;;;;4996664;28;91944;-56
2023/07/07 14:27:44;;;;;;;2.83;1.10;;;;;;;;;;4998241;28;92100;-55
2023/07/07 14:30:16;;;;;;;1.63;1.10;;;;;;;;;;4988244;28;95195;-55
2023/07/07 14:32:44;;;;;;;2.67;1.23;;;;;;;;;;4978716;28;93864;-54
2023/07/07 14:35:14;;;;;;;5.43;1.30;;;;;;;;;;4996685;28;92017;-56
2023/07/07 14:37:47;;;;;;;4.40;1.40;;;;;;;;;;4997660;28;92076;-55
2023/07/07 14:40:27;;;;;;;2.57;1.30;;;;;;;;;;4997844;28;94056;-55
2023/07/07 14:42:57;;;;;;;4.07;1.50;;;;;;;;;;4997436;28;94004;-55
2023/07/07 14:45:26;;;;;;;4.10;1.67;;;;;;;;;;4998383;28;91811;-55
2023/07/07 14:47:55;;;;;;;3.00;1.30;;;;;;;;;;4998302;28;91285;-55
2023/07/07 14:50:23;;;;;;;1.80;1.30;;;;;;;;;;4997282;28;93043;-55
2023/07/07 14:52:53;;;;;;;2.70;1.07;;;;;;;;;;4997555;28;93492;-55
2023/07/07 14:55:22;;;;;;;2.70;1.33;;;;;;;;;;4980867;28;93298;-55
2023/07/07 14:57:52;;;;;;;2.77;1.50;;;;;;;;;;4974918;28;92170;-55
2023/07/07 15:00:28;;;;;;;4.77;1.20;;;;;;;;;;4974653;28;94700;-56